sensor_id;sensor_type;location;lat;lon;timestamp;P1;durP1;ratioP1;P2;durP2;ratioP2
53867;SDS011;41577;47.470;19.080;2023-07-13T00:00:03;7.57;;;2.63;;
53867;SDS011;41577;47.470;19.080;2023-07-13T00:00:16;7.47;;;2.80;;
53867;SDS011;41577;47.470;19.080;2023-07-13T00:00:29;8.25;;;2.88;;
53867;SDS011;41577;47.470;19.080;2023-07-13T00:00:41;11.05;;;3.05;;
53867;SDS011;41577;47.470;19.080;2023-07-13T00:00:54;12.50;;;3.25;;
53867;SDS011;41577;47.470;19.080;2023-07-13T00:01:06;11.60;;;3.28;;
53867;SDS011;41577;47.470;19.080;2023-07-13T00:01:21;14.63;;;3.42;;
53867;SDS011;41577;47.470;19.080;2023-07-13T00:01:33;16.20;;;3.60;;
53867;SDS011;41577;47.470;19.080;2023-07-13T00:01:49;18.75;;;3.47;;
53867;SDS011;41577;47.470;19.080;2023-07-13T00:02:05;22.27;;;3.40;;
53867;SDS011;41577;47.470;19.080;2023-07-13T00:02:17;26.05;;;3.17;;
53867;SDS011;41577;47.470;19.080;2023-07-13T00:02:30;19.90;;;3.10;;
53867;SDS011;41577;47.470;19.080;2023-07-13T00:02:42;14.50;;;3.17;;
53867;SDS011;41577;47.470;19.080;2023-07-13T00:02:54;16.02;;;3.17;;
53867;SDS011;41577;47.470;19.080;2023-07-13T00:03:07;15.40;;;3.00;;
53867;SDS011;41577;47.470;19.080;2023-07-13T00:03:20;14.10;;;3.15;;
53867;SDS011;41577;47.470;19.080;2023-07-13T00:03:32;12.60;;;3.35;;
53867;SDS011;41577;47.470;19.080;2023-07-13T00:03:44;10.00;;;3.33;;
53867;SDS011;41577;47.470;19.080;2023-07-13T00:03:57;11.35;;;3.28;;
53867;SDS011;41577;47.470;19.080;2023-07-13T00:04:11;16.05;;;2.92;;
53867;SDS011;41577;47.470;19.080;2023-07-13T00:04:24;15.60;;;2.90;;
53867;SDS011;41577;47.470;19.080;2023-07-13T00:04:37;14.77;;;3.00;;
53867;SDS011;41577;47.470;19.080;2023-07-13T00:04:49;12.77;;;2.92;;
53867;SDS011;41577;47.470;19.080;2023-07-13T00:05:01;12.05;;;2.80;;
53867;SDS011;41577;47.470;19.080;2023-07-13T00:05:17;12.13;;;3.08;;
53867;SDS011;41577;47.470;19.080;2023-07-13T00:05:29;11.70;;;2.70;;
53867;SDS011;41577;47.470;19.080;2023-07-13T00:05:41;10.85;;;2.55;;
53867;SDS011;41577;47.470;19.080;2023-07-13T00:05:59;9.07;;;3.13;;
53867;SDS011;41577;47.470;19.080;2023-07-13T00:06:12;7.72;;;3.15;;
53867;SDS011;41577;47.470;19.080;2023-07-13T00:06:27;6.72;;;2.78;;
53867;SDS011;41577;47.470;19.080;2023-07-13T00:06:45;10.27;;;2.97;;
53867;SDS011;41577;47.470;19.080;2023-07-13T00:06:58;11.02;;;2.72;;
53867;SDS011;41577;47.470;19.080;2023-07-13T00:07:11;9.18;;;2.92;;
53867;SDS011;41577;47.470;19.080;2023-07-13T00:07:23;6.82;;;3.33;;
53867;SDS011;41577;47.470;19.080;2023-07-13T00:07:37;7.78;;;3.08;;
53867;SDS011;41577;47.470;19.080;2023-07-13T00:07:50;9.43;;;2.53;;
53867;SDS011;41577;47.470;19.080;2023-07-13T00:08:04;10.10;;;2.75;;
53867;SDS011;41577;47.470;19.080;2023-07-13T00:08:19;8.10;;;2.88;;
53867;SDS011;41577;47.470;19.080;2023-07-13T00:08:31;7.47;;;2.78;;
53867;SDS011;41577;47.470;19.080;2023-07-13T00:08:44;9.55;;;3.08;;
53867;SDS011;41577;47.470;19.080;2023-07-13T00:08:56;13.55;;;2.90;;
53867;SDS011;41577;47.470;19.080;2023-07-13T00:09:08;12.10;;;2.70;;
53867;SDS011;41577;47.470;19.080;2023-07-13T00:09:21;13.60;;;2.72;;
53867;SDS011;41577;47.470;19.080;2023-07-13T00:09:34;10.63;;;2.53;;
53867;SDS011;41577;47.470;19.080;2023-07-13T00:09:49;9.70;;;2.72;;
53867;SDS011;41577;47.470;19.080;2023-07-13T00:10:02;12.55;;;3.10;;
53867;SDS011;41577;47.470;19.080;2023-07-13T00:10:17;10.02;;;3.20;;
53867;SDS011;41577;47.470;19.080;2023-07-13T00:10:30;8.70;;;2.97;;
53867;SDS011;41577;47.470;19.080;2023-07-13T00:10:44;9.25;;;2.67;;
53867;SDS011;41577;47.470;19.080;2023-07-13T00:10:57;9.55;;;2.67;;
53867;SDS011;41577;47.470;19.080;2023-07-13T00:11:09;17.02;;;2.72;;
53867;SDS011;41577;47.470;19.080;2023-07-13T00:11:21;16.17;;;2.95;;
53867;SDS011;41577;47.470;19.080;2023-07-13T00:11:34;15.45;;;3.03;;
53867;SDS011;41577;47.470;19.080;2023-07-13T00:11:50;9.48;;;3.00;;
53867;SDS011;41577;47.470;19.080;2023-07-13T00:12:04;6.93;;;2.65;;
53867;SDS011;41577;47.470;19.080;2023-07-13T00:12:33;10.60;;;2.50;;
53867;SDS011;41577;47.470;19.080;2023-07-13T00:12:47;15.38;;;2.60;;
53867;SDS011;41577;47.470;19.080;2023-07-13T00:12:59;10.23;;;2.33;;
53867;SDS011;41577;47.470;19.080;2023-07-13T00:13:11;11.02;;;2.35;;
53867;SDS011;41577;47.470;19.080;2023-07-13T00:13:23;11.63;;;2.50;;
53867;SDS011;41577;47.470;19.080;2023-07-13T00:13:36;8.27;;;2.53;;
53867;SDS011;41577;47.470;19.080;2023-07-13T00:13:54;5.13;;;2.05;;
53867;SDS011;41577;47.470;19.080;2023-07-13T00:14:07;6.65;;;2.50;;
53867;SDS011;41577;47.470;19.080;2023-07-13T00:14:20;11.20;;;2.80;;
53867;SDS011;41577;47.470;19.080;2023-07-13T00:14:33;11.20;;;3.17;;
53867;SDS011;41577;47.470;19.080;2023-07-13T00:14:46;8.35;;;3.25;;
53867;SDS011;41577;47.470;19.080;2023-07-13T00:14:58;10.15;;;2.90;;
53867;SDS011;41577;47.470;19.080;2023-07-13T00:15:12;13.57;;;2.63;;
53867;SDS011;41577;47.470;19.080;2023-07-13T00:15:26;11.38;;;2.60;;
53867;SDS011;41577;47.470;19.080;2023-07-13T00:15:43;7.15;;;2.38;;
53867;SDS011;41577;47.470;19.080;2023-07-13T00:15:56;8.73;;;2.28;;
53867;SDS011;41577;47.470;19.080;2023-07-13T00:16:11;10.40;;;2.67;;
53867;SDS011;41577;47.470;19.080;2023-07-13T00:16:27;6.32;;;2.45;;
53867;SDS011;41577;47.470;19.080;2023-07-13T00:16:39;6.38;;;2.30;;
53867;SDS011;41577;47.470;19.080;2023-07-13T00:16:52;8.05;;;2.50;;
53867;SDS011;41577;47.470;19.080;2023-07-13T00:17:05;8.15;;;2.55;;
53867;SDS011;41577;47.470;19.080;2023-07-13T00:17:17;10.40;;;2.30;;
53867;SDS011;41577;47.470;19.080;2023-07-13T00:17:31;10.50;;;2.13;;
53867;SDS011;41577;47.470;19.080;2023-07-13T00:17:44;9.45;;;2.65;;
53867;SDS011;41577;47.470;19.080;2023-07-13T00:17:56;15.98;;;2.92;;
53867;SDS011;41577;47.470;19.080;2023-07-13T00:18:08;13.75;;;2.42;;
53867;SDS011;41577;47.470;19.080;2023-07-13T00:18:20;12.68;;;2.45;;
53867;SDS011;41577;47.470;19.080;2023-07-13T00:18:35;9.15;;;2.70;;
53867;SDS011;41577;47.470;19.080;2023-07-13T00:18:48;6.30;;;2.40;;
53867;SDS011;41577;47.470;19.080;2023-07-13T00:19:00;6.75;;;2.20;;
53867;SDS011;41577;47.470;19.080;2023-07-13T00:19:14;6.45;;;2.25;;
53867;SDS011;41577;47.470;19.080;2023-07-13T00:19:29;6.60;;;2.20;;
53867;SDS011;41577;47.470;19.080;2023-07-13T00:19:41;5.50;;;2.40;;
53867;SDS011;41577;47.470;19.080;2023-07-13T00:19:55;7.20;;;2.63;;
53867;SDS011;41577;47.470;19.080;2023-07-13T00:20:08;11.35;;;2.63;;
53867;SDS011;41577;47.470;19.080;2023-07-13T00:20:21;12.82;;;2.83;;
53867;SDS011;41577;47.470;19.080;2023-07-13T00:20:37;8.73;;;3.00;;
53867;SDS011;41577;47.470;19.080;2023-07-13T00:20:50;6.93;;;2.95;;
53867;SDS011;41577;47.470;19.080;2023-07-13T00:21:05;6.97;;;2.50;;
53867;SDS011;41577;47.470;19.080;2023-07-13T00:21:17;8.40;;;2.47;;
53867;SDS011;41577;47.470;19.080;2023-07-13T00:21:30;9.23;;;2.38;;
53867;SDS011;41577;47.470;19.080;2023-07-13T00:21:44;6.78;;;2.33;;
53867;SDS011;41577;47.470;19.080;2023-07-13T00:21:56;13.35;;;2.97;;
53867;SDS011;41577;47.470;19.080;2023-07-13T00:22:08;13.45;;;2.97;;
53867;SDS011;41577;47.470;19.080;2023-07-13T00:22:20;10.65;;;2.80;;
53867;SDS011;41577;47.470;19.080;2023-07-13T00:22:32;7.22;;;2.80;;
53867;SDS011;41577;47.470;19.080;2023-07-13T00:22:47;7.80;;;2.97;;
53867;SDS011;41577;47.470;19.080;2023-07-13T00:22:59;8.02;;;2.85;;
53867;SDS011;41577;47.470;19.080;2023-07-13T00:23:13;12.00;;;2.80;;
53867;SDS011;41577;47.470;19.080;2023-07-13T00:23:26;15.80;;;2.55;;
53867;SDS011;41577;47.470;19.080;2023-07-13T00:23:38;12.32;;;3.28;;
53867;SDS011;41577;47.470;19.080;2023-07-13T00:23:52;14.07;;;3.50;;
53867;SDS011;41577;47.470;19.080;2023-07-13T00:24:05;12.10;;;2.97;;
53867;SDS011;41577;47.470;19.080;2023-07-13T00:24:18;12.10;;;3.08;;
53867;SDS011;41577;47.470;19.080;2023-07-13T00:24:30;11.00;;;3.40;;
53867;SDS011;41577;47.470;19.080;2023-07-13T00:24:43;13.15;;;3.15;;
53867;SDS011;41577;47.470;19.080;2023-07-13T00:25:00;10.88;;;2.55;;
53867;SDS011;41577;47.470;19.080;2023-07-13T00:25:13;14.00;;;2.75;;
53867;SDS011;41577;47.470;19.080;2023-07-13T00:25:28;17.58;;;3.03;;
53867;SDS011;41577;47.470;19.080;2023-07-13T00:25:41;14.15;;;3.05;;
53867;SDS011;41577;47.470;19.080;2023-07-13T00:25:53;7.35;;;2.47;;
53867;SDS011;41577;47.470;19.080;2023-07-13T00:26:06;7.90;;;2.60;;
53867;SDS011;41577;47.470;19.080;2023-07-13T00:26:20;7.35;;;2.65;;
53867;SDS011;41577;47.470;19.080;2023-07-13T00:26:32;9.25;;;2.67;;
53867;SDS011;41577;47.470;19.080;2023-07-13T00:26:45;8.50;;;2.78;;
53867;SDS011;41577;47.470;19.080;2023-07-13T00:26:58;5.90;;;2.60;;
53867;SDS011;41577;47.470;19.080;2023-07-13T00:27:10;6.82;;;2.47;;
53867;SDS011;41577;47.470;19.080;2023-07-13T00:27:23;10.18;;;2.58;;
53867;SDS011;41577;47.470;19.080;2023-07-13T00:27:36;9.25;;;2.72;;
53867;SDS011;41577;47.470;19.080;2023-07-13T00:27:48;9.88;;;2.95;;
53867;SDS011;41577;47.470;19.080;2023-07-13T00:28:06;9.32;;;3.60;;
53867;SDS011;41577;47.470;19.080;2023-07-13T00:28:19;9.68;;;3.25;;
53867;SDS011;41577;47.470;19.080;2023-07-13T00:28:31;10.38;;;3.22;;
53867;SDS011;41577;47.470;19.080;2023-07-13T00:28:45;7.80;;;2.60;;
53867;SDS011;41577;47.470;19.080;2023-07-13T00:28:59;5.65;;;2.65;;
53867;SDS011;41577;47.470;19.080;2023-07-13T00:29:14;5.88;;;2.72;;
53867;SDS011;41577;47.470;19.080;2023-07-13T00:29:26;5.28;;;2.45;;
53867;SDS011;41577;47.470;19.080;2023-07-13T00:29:39;7.22;;;2.28;;
53867;SDS011;41577;47.470;19.080;2023-07-13T00:29:51;8.50;;;2.53;;
53867;SDS011;41577;47.470;19.080;2023-07-13T00:30:04;8.55;;;2.33;;
53867;SDS011;41577;47.470;19.080;2023-07-13T00:30:17;9.50;;;2.53;;
53867;SDS011;41577;47.470;19.080;2023-07-13T00:30:30;7.78;;;2.47;;
53867;SDS011;41577;47.470;19.080;2023-07-13T00:30:42;6.63;;;2.35;;
53867;SDS011;41577;47.470;19.080;2023-07-13T00:30:55;6.30;;;2.38;;
53867;SDS011;41577;47.470;19.080;2023-07-13T00:31:08;6.45;;;2.33;;
53867;SDS011;41577;47.470;19.080;2023-07-13T00:31:21;6.60;;;2.47;;
53867;SDS011;41577;47.470;19.080;2023-07-13T00:31:33;9.18;;;3.20;;
53867;SDS011;41577;47.470;19.080;2023-07-13T00:31:46;10.73;;;3.65;;
53867;SDS011;41577;47.470;19.080;2023-07-13T00:31:58;13.95;;;3.78;;
53867;SDS011;41577;47.470;19.080;2023-07-13T00:32:10;14.13;;;3.97;;
53867;SDS011;41577;47.470;19.080;2023-07-13T00:32:22;11.68;;;3.55;;
53867;SDS011;41577;47.470;19.080;2023-07-13T00:32:35;7.78;;;3.20;;
53867;SDS011;41577;47.470;19.080;2023-07-13T00:32:47;8.73;;;3.50;;
53867;SDS011;41577;47.470;19.080;2023-07-13T00:32:59;8.27;;;3.67;;
53867;SDS011;41577;47.470;19.080;2023-07-13T00:33:28;7.47;;;2.67;;
53867;SDS011;41577;47.470;19.080;2023-07-13T00:33:49;7.45;;;2.40;;
53867;SDS011;41577;47.470;19.080;2023-07-13T00:34:01;6.60;;;2.20;;
53867;SDS011;41577;47.470;19.080;2023-07-13T00:34:13;7.28;;;2.38;;
53867;SDS011;41577;47.470;19.080;2023-07-13T00:34:25;6.40;;;2.33;;
53867;SDS011;41577;47.470;19.080;2023-07-13T00:34:38;7.32;;;2.13;;
53867;SDS011;41577;47.470;19.080;2023-07-13T00:34:50;5.45;;;1.80;;
53867;SDS011;41577;47.470;19.080;2023-07-13T00:35:03;3.80;;;1.80;;
53867;SDS011;41577;47.470;19.080;2023-07-13T00:35:15;2.80;;;1.80;;
53867;SDS011;41577;47.470;19.080;2023-07-13T00:35:30;7.53;;;1.95;;
53867;SDS011;41577;47.470;19.080;2023-07-13T00:35:42;9.50;;;2.35;;
53867;SDS011;41577;47.470;19.080;2023-07-13T00:35:56;8.68;;;2.40;;
53867;SDS011;41577;47.470;19.080;2023-07-13T00:36:10;10.00;;;2.22;;
53867;SDS011;41577;47.470;19.080;2023-07-13T00:36:23;9.40;;;2.15;;
53867;SDS011;41577;47.470;19.080;2023-07-13T00:36:35;6.05;;;2.20;;
53867;SDS011;41577;47.470;19.080;2023-07-13T00:36:47;6.50;;;2.30;;
53867;SDS011;41577;47.470;19.080;2023-07-13T00:36:59;7.20;;;2.28;;
53867;SDS011;41577;47.470;19.080;2023-07-13T00:37:12;6.57;;;2.28;;
53867;SDS011;41577;47.470;19.080;2023-07-13T00:37:24;7.15;;;2.30;;
53867;SDS011;41577;47.470;19.080;2023-07-13T00:37:37;7.10;;;2.47;;
53867;SDS011;41577;47.470;19.080;2023-07-13T00:37:54;6.90;;;2.25;;
53867;SDS011;41577;47.470;19.080;2023-07-13T00:38:08;5.97;;;2.30;;
53867;SDS011;41577;47.470;19.080;2023-07-13T00:38:21;7.22;;;2.55;;
53867;SDS011;41577;47.470;19.080;2023-07-13T00:38:34;5.43;;;2.20;;
53867;SDS011;41577;47.470;19.080;2023-07-13T00:38:46;5.22;;;2.10;;
53867;SDS011;41577;47.470;19.080;2023-07-13T00:39:01;4.32;;;1.85;;
53867;SDS011;41577;47.470;19.080;2023-07-13T00:39:14;6.57;;;1.55;;
53867;SDS011;41577;47.470;19.080;2023-07-13T00:39:27;8.43;;;1.80;;
53867;SDS011;41577;47.470;19.080;2023-07-13T00:39:39;6.15;;;1.70;;
53867;SDS011;41577;47.470;19.080;2023-07-13T00:39:51;5.00;;;1.80;;
53867;SDS011;41577;47.470;19.080;2023-07-13T00:40:04;5.03;;;2.00;;
53867;SDS011;41577;47.470;19.080;2023-07-13T00:40:18;5.90;;;2.35;;
53867;SDS011;41577;47.470;19.080;2023-07-13T00:40:32;6.88;;;2.42;;
53867;SDS011;41577;47.470;19.080;2023-07-13T00:40:44;4.72;;;1.98;;
53867;SDS011;41577;47.470;19.080;2023-07-13T00:40:56;9.65;;;2.17;;
53867;SDS011;41577;47.470;19.080;2023-07-13T00:41:08;10.75;;;2.33;;
53867;SDS011;41577;47.470;19.080;2023-07-13T00:41:21;10.25;;;2.30;;
53867;SDS011;41577;47.470;19.080;2023-07-13T00:41:33;8.82;;;2.05;;
53867;SDS011;41577;47.470;19.080;2023-07-13T00:41:47;6.78;;;1.95;;
53867;SDS011;41577;47.470;19.080;2023-07-13T00:42:00;5.32;;;1.85;;
53867;SDS011;41577;47.470;19.080;2023-07-13T00:42:13;5.05;;;2.05;;
53867;SDS011;41577;47.470;19.080;2023-07-13T00:42:25;5.30;;;2.05;;
53867;SDS011;41577;47.470;19.080;2023-07-13T00:42:37;5.82;;;2.10;;
53867;SDS011;41577;47.470;19.080;2023-07-13T00:42:51;4.00;;;1.90;;
53867;SDS011;41577;47.470;19.080;2023-07-13T00:43:04;3.55;;;1.90;;
53867;SDS011;41577;47.470;19.080;2023-07-13T00:43:21;3.38;;;2.08;;
53867;SDS011;41577;47.470;19.080;2023-07-13T00:43:34;4.15;;;1.92;;
53867;SDS011;41577;47.470;19.080;2023-07-13T00:43:46;5.65;;;1.75;;
53867;SDS011;41577;47.470;19.080;2023-07-13T00:43:59;5.90;;;1.88;;
53867;SDS011;41577;47.470;19.080;2023-07-13T00:44:14;8.48;;;2.00;;
53867;SDS011;41577;47.470;19.080;2023-07-13T00:44:27;9.20;;;1.85;;
53867;SDS011;41577;47.470;19.080;2023-07-13T00:44:39;11.63;;;1.75;;
53867;SDS011;41577;47.470;19.080;2023-07-13T00:45:01;8.27;;;1.67;;
53867;SDS011;41577;47.470;19.080;2023-07-13T00:46:17;6.93;;;2.30;;
53867;SDS011;41577;47.470;19.080;2023-07-13T00:46:33;6.45;;;1.92;;
53867;SDS011;41577;47.470;19.080;2023-07-13T00:46:47;6.43;;;1.92;;
53867;SDS011;41577;47.470;19.080;2023-07-13T00:46:59;5.45;;;1.90;;
53867;SDS011;41577;47.470;19.080;2023-07-13T00:47:11;6.78;;;2.50;;
53867;SDS011;41577;47.470;19.080;2023-07-13T00:47:24;7.35;;;2.28;;
53867;SDS011;41577;47.470;19.080;2023-07-13T00:47:36;5.97;;;1.77;;
53867;SDS011;41577;47.470;19.080;2023-07-13T00:47:50;4.35;;;1.50;;
53867;SDS011;41577;47.470;19.080;2023-07-13T00:48:02;4.30;;;1.75;;
53867;SDS011;41577;47.470;19.080;2023-07-13T00:48:15;5.45;;;2.00;;
53867;SDS011;41577;47.470;19.080;2023-07-13T00:48:32;5.32;;;2.15;;
53867;SDS011;41577;47.470;19.080;2023-07-13T00:48:49;4.13;;;1.75;;
53867;SDS011;41577;47.470;19.080;2023-07-13T00:49:02;4.80;;;1.73;;
53867;SDS011;41577;47.470;19.080;2023-07-13T00:49:18;4.18;;;1.83;;
53867;SDS011;41577;47.470;19.080;2023-07-13T00:49:33;4.55;;;1.90;;
53867;SDS011;41577;47.470;19.080;2023-07-13T00:49:47;5.80;;;2.20;;
53867;SDS011;41577;47.470;19.080;2023-07-13T00:49:59;5.15;;;2.10;;
53867;SDS011;41577;47.470;19.080;2023-07-13T00:50:18;4.85;;;2.05;;
53867;SDS011;41577;47.470;19.080;2023-07-13T00:50:33;4.90;;;2.08;;
53867;SDS011;41577;47.470;19.080;2023-07-13T00:50:46;3.75;;;1.83;;
53867;SDS011;41577;47.470;19.080;2023-07-13T00:51:01;4.80;;;1.88;;
53867;SDS011;41577;47.470;19.080;2023-07-13T00:51:14;5.57;;;2.08;;
53867;SDS011;41577;47.470;19.080;2023-07-13T00:51:31;7.30;;;2.25;;
53867;SDS011;41577;47.470;19.080;2023-07-13T00:51:49;6.07;;;1.80;;
53867;SDS011;41577;47.470;19.080;2023-07-13T00:52:07;2.85;;;1.50;;
53867;SDS011;41577;47.470;19.080;2023-07-13T00:52:23;3.78;;;1.60;;
53867;SDS011;41577;47.470;19.080;2023-07-13T00:52:40;3.88;;;1.50;;
53867;SDS011;41577;47.470;19.080;2023-07-13T00:52:56;6.90;;;1.60;;
53867;SDS011;41577;47.470;19.080;2023-07-13T00:53:09;5.72;;;1.73;;
53867;SDS011;41577;47.470;19.080;2023-07-13T00:53:23;2.75;;;1.63;;
53867;SDS011;41577;47.470;19.080;2023-07-13T00:53:37;11.00;;;1.90;;
53867;SDS011;41577;47.470;19.080;2023-07-13T00:53:52;10.65;;;2.00;;
53867;SDS011;41577;47.470;19.080;2023-07-13T00:54:08;6.90;;;1.85;;
53867;SDS011;41577;47.470;19.080;2023-07-13T00:54:24;8.00;;;1.73;;
53867;SDS011;41577;47.470;19.080;2023-07-13T00:54:40;3.97;;;1.65;;
53867;SDS011;41577;47.470;19.080;2023-07-13T00:54:55;7.45;;;1.83;;
53867;SDS011;41577;47.470;19.080;2023-07-13T00:55:09;8.52;;;1.92;;
53867;SDS011;41577;47.470;19.080;2023-07-13T00:55:24;5.78;;;1.90;;
53867;SDS011;41577;47.470;19.080;2023-07-13T00:55:39;4.38;;;1.80;;
53867;SDS011;41577;47.470;19.080;2023-07-13T00:55:54;5.17;;;1.73;;
53867;SDS011;41577;47.470;19.080;2023-07-13T00:56:07;5.55;;;1.90;;
53867;SDS011;41577;47.470;19.080;2023-07-13T00:56:21;4.43;;;1.95;;
53867;SDS011;41577;47.470;19.080;2023-07-13T00:56:36;3.83;;;1.65;;
53867;SDS011;41577;47.470;19.080;2023-07-13T00:56:52;3.80;;;1.52;;
53867;SDS011;41577;47.470;19.080;2023-07-13T00:57:07;3.67;;;1.80;;
53867;SDS011;41577;47.470;19.080;2023-07-13T00:57:30;4.82;;;1.70;;
53867;SDS011;41577;47.470;19.080;2023-07-13T00:57:43;5.38;;;1.45;;
53867;SDS011;41577;47.470;19.080;2023-07-13T00:57:56;4.10;;;1.38;;
53867;SDS011;41577;47.470;19.080;2023-07-13T00:58:09;3.72;;;1.60;;
53867;SDS011;41577;47.470;19.080;2023-07-13T00:58:22;3.45;;;1.52;;
53867;SDS011;41577;47.470;19.080;2023-07-13T00:58:35;3.53;;;1.55;;
53867;SDS011;41577;47.470;19.080;2023-07-13T00:58:48;3.60;;;1.58;;
53867;SDS011;41577;47.470;19.080;2023-07-13T00:59:02;3.70;;;1.73;;
53867;SDS011;41577;47.470;19.080;2023-07-13T00:59:17;3.58;;;1.63;;
53867;SDS011;41577;47.470;19.080;2023-07-13T00:59:31;3.72;;;1.45;;
53867;SDS011;41577;47.470;19.080;2023-07-13T00:59:47;3.28;;;1.50;;
53867;SDS011;41577;47.470;19.080;2023-07-13T01:00:04;4.47;;;1.90;;
53867;SDS011;41577;47.470;19.080;2023-07-13T01:00:18;3.72;;;1.73;;
53867;SDS011;41577;47.470;19.080;2023-07-13T01:00:34;3.55;;;1.48;;
53867;SDS011;41577;47.470;19.080;2023-07-13T01:00:50;6.88;;;1.67;;
53867;SDS011;41577;47.470;19.080;2023-07-13T01:01:02;7.03;;;1.42;;
53867;SDS011;41577;47.470;19.080;2023-07-13T01:01:15;6.00;;;1.70;;
53867;SDS011;41577;47.470;19.080;2023-07-13T01:01:27;5.72;;;2.05;;
53867;SDS011;41577;47.470;19.080;2023-07-13T01:01:43;5.25;;;1.98;;
53867;SDS011;41577;47.470;19.080;2023-07-13T01:01:55;3.15;;;1.50;;
53867;SDS011;41577;47.470;19.080;2023-07-13T01:02:08;2.50;;;1.40;;
53867;SDS011;41577;47.470;19.080;2023-07-13T01:02:21;2.50;;;1.45;;
53867;SDS011;41577;47.470;19.080;2023-07-13T01:02:34;2.72;;;1.73;;
53867;SDS011;41577;47.470;19.080;2023-07-13T01:02:49;3.33;;;1.80;;
53867;SDS011;41577;47.470;19.080;2023-07-13T01:03:01;4.82;;;1.73;;
53867;SDS011;41577;47.470;19.080;2023-07-13T01:03:15;5.05;;;1.60;;
53867;SDS011;41577;47.470;19.080;2023-07-13T01:03:27;3.20;;;1.48;;
53867;SDS011;41577;47.470;19.080;2023-07-13T01:03:39;4.22;;;1.55;;
53867;SDS011;41577;47.470;19.080;2023-07-13T01:03:52;5.07;;;1.67;;
53867;SDS011;41577;47.470;19.080;2023-07-13T01:04:04;4.57;;;1.73;;
53867;SDS011;41577;47.470;19.080;2023-07-13T01:04:17;4.88;;;1.95;;
53867;SDS011;41577;47.470;19.080;2023-07-13T01:04:29;2.95;;;1.65;;
53867;SDS011;41577;47.470;19.080;2023-07-13T01:04:42;2.75;;;1.63;;
53867;SDS011;41577;47.470;19.080;2023-07-13T01:04:55;4.78;;;1.73;;
53867;SDS011;41577;47.470;19.080;2023-07-13T01:05:08;7.75;;;1.83;;
53867;SDS011;41577;47.470;19.080;2023-07-13T01:05:22;7.00;;;1.85;;
53867;SDS011;41577;47.470;19.080;2023-07-13T01:05:38;4.20;;;1.77;;
53867;SDS011;41577;47.470;19.080;2023-07-13T01:05:53;2.72;;;1.45;;
53867;SDS011;41577;47.470;19.080;2023-07-13T01:06:05;6.22;;;1.60;;
53867;SDS011;41577;47.470;19.080;2023-07-13T01:06:18;7.88;;;1.80;;
53867;SDS011;41577;47.470;19.080;2023-07-13T01:06:30;4.65;;;1.63;;
53867;SDS011;41577;47.470;19.080;2023-07-13T01:06:43;3.08;;;1.50;;
53867;SDS011;41577;47.470;19.080;2023-07-13T01:06:56;3.20;;;1.50;;
53867;SDS011;41577;47.470;19.080;2023-07-13T01:07:12;4.78;;;1.58;;
53867;SDS011;41577;47.470;19.080;2023-07-13T01:07:25;6.63;;;1.75;;
53867;SDS011;41577;47.470;19.080;2023-07-13T01:07:37;4.97;;;1.73;;
53867;SDS011;41577;47.470;19.080;2023-07-13T01:07:51;4.25;;;1.58;;
53867;SDS011;41577;47.470;19.080;2023-07-13T01:08:12;6.00;;;1.88;;
53867;SDS011;41577;47.470;19.080;2023-07-13T01:08:25;6.50;;;2.00;;
53867;SDS011;41577;47.470;19.080;2023-07-13T01:08:38;7.22;;;1.88;;
53867;SDS011;41577;47.470;19.080;2023-07-13T01:08:50;4.63;;;1.70;;
53867;SDS011;41577;47.470;19.080;2023-07-13T01:09:04;3.92;;;1.65;;
53867;SDS011;41577;47.470;19.080;2023-07-13T01:09:18;4.10;;;1.70;;
53867;SDS011;41577;47.470;19.080;2023-07-13T01:09:31;3.72;;;1.70;;
53867;SDS011;41577;47.470;19.080;2023-07-13T01:09:45;3.70;;;1.73;;
53867;SDS011;41577;47.470;19.080;2023-07-13T01:10:03;9.98;;;1.60;;
53867;SDS011;41577;47.470;19.080;2023-07-13T01:10:20;7.47;;;2.00;;
53867;SDS011;41577;47.470;19.080;2023-07-13T01:10:33;6.00;;;2.20;;
53867;SDS011;41577;47.470;19.080;2023-07-13T01:10:52;5.30;;;2.13;;
53867;SDS011;41577;47.470;19.080;2023-07-13T01:11:05;4.75;;;2.13;;
53867;SDS011;41577;47.470;19.080;2023-07-13T01:11:19;3.22;;;1.88;;
53867;SDS011;41577;47.470;19.080;2023-07-13T01:11:32;4.07;;;1.92;;
53867;SDS011;41577;47.470;19.080;2023-07-13T01:11:44;4.57;;;1.67;;
53867;SDS011;41577;47.470;19.080;2023-07-13T01:11:57;4.68;;;1.67;;
53867;SDS011;41577;47.470;19.080;2023-07-13T01:12:10;5.20;;;1.88;;
53867;SDS011;41577;47.470;19.080;2023-07-13T01:12:22;5.25;;;2.05;;
53867;SDS011;41577;47.470;19.080;2023-07-13T01:12:34;4.75;;;1.90;;
53867;SDS011;41577;47.470;19.080;2023-07-13T01:12:46;6.97;;;2.15;;
53867;SDS011;41577;47.470;19.080;2023-07-13T01:12:59;6.03;;;2.08;;
53867;SDS011;41577;47.470;19.080;2023-07-13T01:13:11;4.28;;;1.63;;
53867;SDS011;41577;47.470;19.080;2023-07-13T01:13:23;8.48;;;2.05;;
53867;SDS011;41577;47.470;19.080;2023-07-13T01:13:36;7.60;;;2.13;;
53867;SDS011;41577;47.470;19.080;2023-07-13T01:13:48;3.85;;;2.03;;
53867;SDS011;41577;47.470;19.080;2023-07-13T01:14:01;2.92;;;1.70;;
53867;SDS011;41577;47.470;19.080;2023-07-13T01:14:13;3.72;;;2.00;;
53867;SDS011;41577;47.470;19.080;2023-07-13T01:14:27;4.40;;;2.30;;
53867;SDS011;41577;47.470;19.080;2023-07-13T01:14:39;7.60;;;2.15;;
53867;SDS011;41577;47.470;19.080;2023-07-13T01:14:56;9.15;;;1.95;;
53867;SDS011;41577;47.470;19.080;2023-07-13T01:15:48;4.05;;;1.70;;
53867;SDS011;41577;47.470;19.080;2023-07-13T01:16:02;5.22;;;2.25;;
53867;SDS011;41577;47.470;19.080;2023-07-13T01:16:24;5.32;;;2.10;;
53867;SDS011;41577;47.470;19.080;2023-07-13T01:16:40;3.35;;;1.80;;
53867;SDS011;41577;47.470;19.080;2023-07-13T01:16:55;4.45;;;2.05;;
53867;SDS011;41577;47.470;19.080;2023-07-13T01:17:08;4.93;;;2.15;;
53867;SDS011;41577;47.470;19.080;2023-07-13T01:17:22;5.10;;;2.13;;
53867;SDS011;41577;47.470;19.080;2023-07-13T01:17:34;10.07;;;2.05;;
53867;SDS011;41577;47.470;19.080;2023-07-13T01:17:50;13.45;;;1.80;;
53867;SDS011;41577;47.470;19.080;2023-07-13T01:18:03;12.02;;;2.17;;
53867;SDS011;41577;47.470;19.080;2023-07-13T01:18:17;5.30;;;1.95;;
53867;SDS011;41577;47.470;19.080;2023-07-13T01:18:31;4.68;;;1.77;;
53867;SDS011;41577;47.470;19.080;2023-07-13T01:18:43;6.35;;;1.80;;
53867;SDS011;41577;47.470;19.080;2023-07-13T01:19:00;6.20;;;1.90;;
53867;SDS011;41577;47.470;19.080;2023-07-13T01:19:18;5.77;;;2.13;;
53867;SDS011;41577;47.470;19.080;2023-07-13T01:19:44;3.00;;;1.73;;
53867;SDS011;41577;47.470;19.080;2023-07-13T01:19:57;5.83;;;1.87;;
53867;SDS011;41577;47.470;19.080;2023-07-13T01:20:12;7.70;;;2.03;;
53867;SDS011;41577;47.470;19.080;2023-07-13T01:20:24;5.32;;;2.00;;
53867;SDS011;41577;47.470;19.080;2023-07-13T01:20:36;2.60;;;1.92;;
53867;SDS011;41577;47.470;19.080;2023-07-13T01:20:54;2.72;;;1.80;;
53867;SDS011;41577;47.470;19.080;2023-07-13T01:21:06;4.75;;;1.80;;
53867;SDS011;41577;47.470;19.080;2023-07-13T01:21:24;4.93;;;1.75;;
53867;SDS011;41577;47.470;19.080;2023-07-13T01:21:37;4.97;;;1.88;;
53867;SDS011;41577;47.470;19.080;2023-07-13T01:21:50;4.45;;;2.03;;
53867;SDS011;41577;47.470;19.080;2023-07-13T01:22:02;5.68;;;2.00;;
53867;SDS011;41577;47.470;19.080;2023-07-13T01:22:17;7.55;;;2.30;;
53867;SDS011;41577;47.470;19.080;2023-07-13T01:22:30;7.43;;;2.63;;
53867;SDS011;41577;47.470;19.080;2023-07-13T01:22:43;7.20;;;2.58;;
53867;SDS011;41577;47.470;19.080;2023-07-13T01:22:55;5.35;;;1.88;;